OJAIOJAM

Guest
Details From OJAI - Queen Alia Intl
To OJAM - Marka Intl
Flight Number -
Tags Generated
Created
Modified
Stats Distance 15 nm / 28 km
Max Altitude 0 ft / 0 m
Waypoints 2
Social Downloads 7
Likes 0
Share VATSIM

Download

Looking for another format? Having issues loading an existing format? Contact us
Advertisement - Login to hide

Notes

Generated

Route

OJAI OJAM

ID Type Via Altitude Latitude Longitude Leg Dist Tot Dist Heading (true) Name
O OJAI APT - 0 ft / 0 m 31.71439˚ 35.98059˚ - 0 nm - -
O OJAM APT - 0 ft / 0 m 31.96626˚ 35.97598˚ 15 nm 15 nm 359° / 359° -

Altitude Profile

Advertisement - Login to hide

OJAI

Details ICAO OJAI (AMM)
Name QUEEN ALIA INTL
Region Jordan and the West Bank
Timezone Asia/Amman (UTC+2.0)
Stats Elevation 2,395 ft / 730 m (AMSL)
Location 31.723310° 35.994046°
Runways 2
Magnetic Variation 4.662° E

METAR

OJAI 181500Z 04007KT 6000 NSC 18/M03 Q1021 NOSIG

Decode

TAF

TAF OJAI 181100Z 1812/1918 15008KT 6000 BKN100 TEMPO 1902/1906 VRB02KT 5000 HZ

Decode

Departure Runways

ID Width Length Bearing (true) Bearing (mag) Surface Threshold Offset Overrun Length
08L 200 ft / 61 m 11,948 ft / 3,642 m 80.34° 75.68° Asphalt 0 ft / 0 m 490 ft / 149 m
08R 200 ft / 61 m 11,943 ft / 3,640 m 80.35° 75.69° Concrete 0 ft / 0 m 530 ft / 162 m
26L 200 ft / 61 m 11,943 ft / 3,640 m 260.37° 255.71° Concrete 0 ft / 0 m 500 ft / 152 m
26R 200 ft / 61 m 11,948 ft / 3,642 m 260.36° 255.70° Asphalt 0 ft / 0 m 492 ft / 150 m

OJAM

Details ICAO OJAM (ADJ)
Name MARKA INTL
Region Jordan and the West Bank
Timezone Asia/Amman (UTC+2.0)
Stats Elevation 2,555 ft / 779 m (AMSL)
Location 31.972703° 35.991572°
Runways 1
Magnetic Variation 4.691° E

METAR

OJAM 181500Z 00000KT 3000 DU NSC 16/M00 Q1021 NOSIG

Decode

TAF

TAF OJAM 181100Z 1812/1918 14006KT 3000 HZ BKN100 BECMG 1814/1816 5000 TEMPO 1902/1906 VRB02KT 3000

Decode

Destination Runways

ID Width Length Bearing (true) Bearing (mag) Surface Threshold Offset Overrun Length
06 148 ft / 45 m 10,736 ft / 3,272 m 64.03° 59.34° Asphalt 0 ft / 0 m 735 ft / 224 m
24 148 ft / 45 m 10,736 ft / 3,272 m 244.05° 239.36° Asphalt 0 ft / 0 m 394 ft / 120 m

Approach Navaids

Runway Type Ident Frequency Range Bearing (true) Bearing (mag) Slope Elevation
24 Localiser LAMN 109.50 MHz 18 nm / 33 km 244.07° 239.38° - 2,557 ft / 779 m (AMSL)
24 Glidescope LAMN 109.50 MHz 10 nm / 19 km 244.04° 239.35° 3.00° 2,457 ft / 749 m (AMSL)

Popular Alternatives